sensor_id;sensor_type;location;lat;lon;timestamp;pressure;altitude;pressure_sealevel;temperature
76476;BMP280;65308;50.078;14.854;2024-02-23T00:02:10;96815.97;;;12.90
76476;BMP280;65308;50.078;14.854;2024-02-23T00:04:36;96817.97;;;13.03
76476;BMP280;65308;50.078;14.854;2024-02-23T00:07:03;96819.84;;;13.08
76476;BMP280;65308;50.078;14.854;2024-02-23T00:09:29;96825.75;;;13.20
76476;BMP280;65308;50.078;14.854;2024-02-23T00:11:56;96824.59;;;13.02
76476;BMP280;65308;50.078;14.854;2024-02-23T00:14:23;96828.72;;;13.03
76476;BMP280;65308;50.078;14.854;2024-02-23T00:16:49;96825.63;;;13.12
76476;BMP280;65308;50.078;14.854;2024-02-23T00:19:17;96815.94;;;13.09
76476;BMP280;65308;50.078;14.854;2024-02-23T00:21:45;96824.09;;;13.30
76476;BMP280;65308;50.078;14.854;2024-02-23T00:24:15;96815.66;;;13.26
76476;BMP280;65308;50.078;14.854;2024-02-23T00:26:42;96813.50;;;13.38
76476;BMP280;65308;50.078;14.854;2024-02-23T00:29:09;96808.34;;;13.40
76476;BMP280;65308;50.078;14.854;2024-02-23T00:31:37;96802.84;;;13.32
76476;BMP280;65308;50.078;14.854;2024-02-23T00:34:06;96790.47;;;13.56
76476;BMP280;65308;50.078;14.854;2024-02-23T00:36:38;96781.28;;;13.38
76476;BMP280;65308;50.078;14.854;2024-02-23T00:39:04;96808.44;;;13.34
76476;BMP280;65308;50.078;14.854;2024-02-23T00:41:32;96797.34;;;13.24
76476;BMP280;65308;50.078;14.854;2024-02-23T00:43:59;96803.22;;;13.23
76476;BMP280;65308;50.078;14.854;2024-02-23T00:46:28;96810.38;;;13.20
76476;BMP280;65308;50.078;14.854;2024-02-23T00:48:54;96816.94;;;13.06
76476;BMP280;65308;50.078;14.854;2024-02-23T00:51:21;96820.16;;;13.18
76476;BMP280;65308;50.078;14.854;2024-02-23T00:53:49;96822.53;;;13.08
76476;BMP280;65308;50.078;14.854;2024-02-23T00:56:16;96827.53;;;12.98
76476;BMP280;65308;50.078;14.854;2024-02-23T00:58:43;96828.25;;;12.99
76476;BMP280;65308;50.078;14.854;2024-02-23T01:01:10;96847.56;;;13.16
76476;BMP280;65308;50.078;14.854;2024-02-23T01:03:36;96845.97;;;13.08
76476;BMP280;65308;50.078;14.854;2024-02-23T01:06:03;96833.50;;;13.10
76476;BMP280;65308;50.078;14.854;2024-02-23T01:08:30;96848.81;;;13.42
76476;BMP280;65308;50.078;14.854;2024-02-23T01:10:59;96842.59;;;13.20
76476;BMP280;65308;50.078;14.854;2024-02-23T01:13:25;96847.00;;;13.05
76476;BMP280;65308;50.078;14.854;2024-02-23T01:15:52;96843.97;;;12.95
76476;BMP280;65308;50.078;14.854;2024-02-23T01:18:20;96853.25;;;12.94
76476;BMP280;65308;50.078;14.854;2024-02-23T01:20:46;96839.19;;;12.88
76476;BMP280;65308;50.078;14.854;2024-02-23T01:23:13;96841.06;;;12.93
76476;BMP280;65308;50.078;14.854;2024-02-23T01:25:40;96860.72;;;13.01
76476;BMP280;65308;50.078;14.854;2024-02-23T01:28:08;96862.41;;;13.17
76476;BMP280;65308;50.078;14.854;2024-02-23T01:30:34;96863.69;;;13.16
76476;BMP280;65308;50.078;14.854;2024-02-23T01:33:01;96864.03;;;13.07
76476;BMP280;65308;50.078;14.854;2024-02-23T01:35:28;96872.53;;;12.92
76476;BMP280;65308;50.078;14.854;2024-02-23T01:37:55;96874.72;;;12.94
76476;BMP280;65308;50.078;14.854;2024-02-23T01:40:22;96880.53;;;12.98
76476;BMP280;65308;50.078;14.854;2024-02-23T01:42:48;96889.22;;;13.04
76476;BMP280;65308;50.078;14.854;2024-02-23T01:45:16;96874.19;;;13.14
76476;BMP280;65308;50.078;14.854;2024-02-23T01:47:43;96880.78;;;13.13
76476;BMP280;65308;50.078;14.854;2024-02-23T01:50:10;96887.13;;;13.29
76476;BMP280;65308;50.078;14.854;2024-02-23T01:52:38;96894.41;;;13.34
76476;BMP280;65308;50.078;14.854;2024-02-23T01:55:05;96895.28;;;13.23
76476;BMP280;65308;50.078;14.854;2024-02-23T01:57:32;96912.00;;;13.16
76476;BMP280;65308;50.078;14.854;2024-02-23T01:59:59;96911.41;;;13.05
76476;BMP280;65308;50.078;14.854;2024-02-23T02:02:27;96900.75;;;12.99
76476;BMP280;65308;50.078;14.854;2024-02-23T02:04:56;96904.41;;;12.83
76476;BMP280;65308;50.078;14.854;2024-02-23T02:07:22;96915.56;;;12.87
76476;BMP280;65308;50.078;14.854;2024-02-23T02:10:17;96912.03;;;12.60
76476;BMP280;65308;50.078;14.854;2024-02-23T02:12:46;96917.16;;;12.58
76476;BMP280;65308;50.078;14.854;2024-02-23T02:15:27;96918.94;;;12.49
76476;BMP280;65308;50.078;14.854;2024-02-23T02:18:05;96923.31;;;12.34
76476;BMP280;65308;50.078;14.854;2024-02-23T02:20:40;96928.56;;;12.20
76476;BMP280;65308;50.078;14.854;2024-02-23T02:23:23;96919.09;;;12.38
76476;BMP280;65308;50.078;14.854;2024-02-23T02:26:04;96924.06;;;12.28
76476;BMP280;65308;50.078;14.854;2024-02-23T02:28:31;96927.03;;;12.25
76476;BMP280;65308;50.078;14.854;2024-02-23T02:30:57;96932.56;;;12.33
76476;BMP280;65308;50.078;14.854;2024-02-23T02:33:25;96934.63;;;12.45
76476;BMP280;65308;50.078;14.854;2024-02-23T02:35:52;96942.94;;;12.42
76476;BMP280;65308;50.078;14.854;2024-02-23T02:38:18;96945.84;;;12.44
76476;BMP280;65308;50.078;14.854;2024-02-23T02:40:45;96948.84;;;12.35
76476;BMP280;65308;50.078;14.854;2024-02-23T02:46:21;96957.25;;;12.50
76476;BMP280;65308;50.078;14.854;2024-02-23T02:48:49;96963.03;;;12.54
76476;BMP280;65308;50.078;14.854;2024-02-23T02:51:16;96967.44;;;12.57
76476;BMP280;65308;50.078;14.854;2024-02-23T02:53:42;96969.59;;;12.59
76476;BMP280;65308;50.078;14.854;2024-02-23T02:56:09;96972.00;;;12.62
76476;BMP280;65308;50.078;14.854;2024-02-23T02:58:36;96967.84;;;12.61
76476;BMP280;65308;50.078;14.854;2024-02-23T03:01:02;96986.09;;;12.44
76476;BMP280;65308;50.078;14.854;2024-02-23T03:03:29;96995.22;;;12.54
76476;BMP280;65308;50.078;14.854;2024-02-23T03:05:57;96988.66;;;12.55
76476;BMP280;65308;50.078;14.854;2024-02-23T03:08:24;97003.34;;;12.48
76476;BMP280;65308;50.078;14.854;2024-02-23T03:10:51;96998.53;;;12.41
76476;BMP280;65308;50.078;14.854;2024-02-23T03:13:18;97005.59;;;12.44
76476;BMP280;65308;50.078;14.854;2024-02-23T03:15:44;97000.03;;;12.61
76476;BMP280;65308;50.078;14.854;2024-02-23T03:18:11;97002.19;;;12.44
76476;BMP280;65308;50.078;14.854;2024-02-23T03:20:40;97008.38;;;12.33
76476;BMP280;65308;50.078;14.854;2024-02-23T03:23:08;97006.13;;;12.13
76476;BMP280;65308;50.078;14.854;2024-02-23T03:25:34;97009.00;;;12.20
76476;BMP280;65308;50.078;14.854;2024-02-23T03:28:01;97010.94;;;12.20
76476;BMP280;65308;50.078;14.854;2024-02-23T03:30:28;97018.16;;;12.31
76476;BMP280;65308;50.078;14.854;2024-02-23T03:32:54;97017.19;;;12.28
76476;BMP280;65308;50.078;14.854;2024-02-23T03:35:21;97027.84;;;12.09
76476;BMP280;65308;50.078;14.854;2024-02-23T03:37:47;97026.63;;;12.10
76476;BMP280;65308;50.078;14.854;2024-02-23T03:40:15;97044.94;;;12.06
76476;BMP280;65308;50.078;14.854;2024-02-23T03:42:43;97037.25;;;11.91
76476;BMP280;65308;50.078;14.854;2024-02-23T03:45:10;97042.19;;;11.82
76476;BMP280;65308;50.078;14.854;2024-02-23T03:47:38;97049.22;;;11.85
76476;BMP280;65308;50.078;14.854;2024-02-23T03:50:05;97058.25;;;11.82
76476;BMP280;65308;50.078;14.854;2024-02-23T03:52:32;97067.00;;;11.88
76476;BMP280;65308;50.078;14.854;2024-02-23T03:54:59;97071.19;;;11.77
76476;BMP280;65308;50.078;14.854;2024-02-23T03:57:27;97069.78;;;11.71
76476;BMP280;65308;50.078;14.854;2024-02-23T03:59:54;97069.78;;;11.71
76476;BMP280;65308;50.078;14.854;2024-02-23T04:02:21;97072.94;;;11.69
76476;BMP280;65308;50.078;14.854;2024-02-23T04:04:48;97084.16;;;11.73
76476;BMP280;65308;50.078;14.854;2024-02-23T04:07:14;97088.09;;;11.61
76476;BMP280;65308;50.078;14.854;2024-02-23T04:09:41;97106.88;;;11.55
76476;BMP280;65308;50.078;14.854;2024-02-23T04:12:08;97094.75;;;11.43
76476;BMP280;65308;50.078;14.854;2024-02-23T04:14:36;97095.50;;;11.38
76476;BMP280;65308;50.078;14.854;2024-02-23T04:17:03;97103.25;;;11.53
76476;BMP280;65308;50.078;14.854;2024-02-23T04:19:29;97108.91;;;11.38
76476;BMP280;65308;50.078;14.854;2024-02-23T04:21:56;97121.75;;;11.51
76476;BMP280;65308;50.078;14.854;2024-02-23T04:24:22;97121.00;;;11.56
76476;BMP280;65308;50.078;14.854;2024-02-23T04:26:48;97110.34;;;11.33
76476;BMP280;65308;50.078;14.854;2024-02-23T04:29:15;97141.50;;;11.42
76476;BMP280;65308;50.078;14.854;2024-02-23T04:31:43;97134.75;;;11.24
76476;BMP280;65308;50.078;14.854;2024-02-23T04:34:10;97140.78;;;11.42
76476;BMP280;65308;50.078;14.854;2024-02-23T04:36:36;97131.31;;;11.35
76476;BMP280;65308;50.078;14.854;2024-02-23T04:39:03;97128.91;;;11.31
76476;BMP280;65308;50.078;14.854;2024-02-23T04:41:30;97132.78;;;11.19
76476;BMP280;65308;50.078;14.854;2024-02-23T04:43:57;97150.84;;;11.13
76476;BMP280;65308;50.078;14.854;2024-02-23T04:46:25;97160.09;;;11.06
76476;BMP280;65308;50.078;14.854;2024-02-23T04:48:53;97143.06;;;11.15
76476;BMP280;65308;50.078;14.854;2024-02-23T04:51:20;97150.38;;;11.09
76476;BMP280;65308;50.078;14.854;2024-02-23T04:53:48;97140.81;;;11.19
76476;BMP280;65308;50.078;14.854;2024-02-23T04:56:14;97148.88;;;11.25
76476;BMP280;65308;50.078;14.854;2024-02-23T04:58:41;97156.38;;;11.38
76476;BMP280;65308;50.078;14.854;2024-02-23T05:01:08;97159.50;;;11.53
76476;BMP280;65308;50.078;14.854;2024-02-23T05:03:36;97183.63;;;11.53
76476;BMP280;65308;50.078;14.854;2024-02-23T05:06:04;97180.19;;;11.58
76476;BMP280;65308;50.078;14.854;2024-02-23T05:08:33;97191.16;;;11.60
76476;BMP280;65308;50.078;14.854;2024-02-23T05:11:00;97197.28;;;11.44
76476;BMP280;65308;50.078;14.854;2024-02-23T05:13:26;97201.69;;;11.24
76476;BMP280;65308;50.078;14.854;2024-02-23T05:15:55;97207.03;;;11.30
76476;BMP280;65308;50.078;14.854;2024-02-23T05:18:25;97211.19;;;11.20
76476;BMP280;65308;50.078;14.854;2024-02-23T05:20:51;97211.19;;;11.20
76476;BMP280;65308;50.078;14.854;2024-02-23T05:23:20;97211.19;;;11.03
76476;BMP280;65308;50.078;14.854;2024-02-23T05:25:46;97227.47;;;11.05
76476;BMP280;65308;50.078;14.854;2024-02-23T05:28:13;97236.53;;;10.96
76476;BMP280;65308;50.078;14.854;2024-02-23T05:30:40;97231.19;;;10.96
76476;BMP280;65308;50.078;14.854;2024-02-23T05:33:09;97240.38;;;10.84
76476;BMP280;65308;50.078;14.854;2024-02-23T05:35:36;97244.28;;;10.83
76476;BMP280;65308;50.078;14.854;2024-02-23T05:38:03;97237.72;;;10.73
76476;BMP280;65308;50.078;14.854;2024-02-23T05:40:32;97250.34;;;10.72
76476;BMP280;65308;50.078;14.854;2024-02-23T05:43:03;97255.72;;;10.67
76476;BMP280;65308;50.078;14.854;2024-02-23T05:45:29;97258.84;;;10.54
76476;BMP280;65308;50.078;14.854;2024-02-23T05:47:57;97262.50;;;10.62
76476;BMP280;65308;50.078;14.854;2024-02-23T05:50:24;97254.97;;;10.72
76476;BMP280;65308;50.078;14.854;2024-02-23T05:52:51;97253.03;;;10.67
76476;BMP280;65308;50.078;14.854;2024-02-23T05:55:18;97269.09;;;10.78
76476;BMP280;65308;50.078;14.854;2024-02-23T05:57:51;97258.84;;;10.65
76476;BMP280;65308;50.078;14.854;2024-02-23T06:00:19;97263.94;;;10.57
76476;BMP280;65308;50.078;14.854;2024-02-23T06:02:46;97269.72;;;10.33
76476;BMP280;65308;50.078;14.854;2024-02-23T06:05:13;97266.13;;;10.42
76476;BMP280;65308;50.078;14.854;2024-02-23T06:07:41;97272.72;;;10.64
76476;BMP280;65308;50.078;14.854;2024-02-23T06:10:07;97272.00;;;10.63
76476;BMP280;65308;50.078;14.854;2024-02-23T06:12:34;97281.44;;;10.42
76476;BMP280;65308;50.078;14.854;2024-02-23T06:15:02;97289.84;;;10.23
76476;BMP280;65308;50.078;14.854;2024-02-23T06:17:29;97295.47;;;10.25
76476;BMP280;65308;50.078;14.854;2024-02-23T06:19:55;97311.25;;;10.23
76476;BMP280;65308;50.078;14.854;2024-02-23T06:22:24;97307.63;;;10.26
76476;BMP280;65308;50.078;14.854;2024-02-23T06:24:51;97302.72;;;10.25
76476;BMP280;65308;50.078;14.854;2024-02-23T06:27:17;97312.97;;;10.21
76476;BMP280;65308;50.078;14.854;2024-02-23T06:29:44;97313.44;;;10.25
76476;BMP280;65308;50.078;14.854;2024-02-23T06:32:12;97324.19;;;10.36
76476;BMP280;65308;50.078;14.854;2024-02-23T06:34:38;97321.28;;;10.40
76476;BMP280;65308;50.078;14.854;2024-02-23T06:37:05;97314.50;;;10.44
76476;BMP280;65308;50.078;14.854;2024-02-23T06:39:31;97326.88;;;10.36
76476;BMP280;65308;50.078;14.854;2024-02-23T06:41:58;97322.22;;;10.31
76476;BMP280;65308;50.078;14.854;2024-02-23T06:44:26;97327.09;;;10.32
76476;BMP280;65308;50.078;14.854;2024-02-23T06:46:52;97337.81;;;10.44
76476;BMP280;65308;50.078;14.854;2024-02-23T06:49:20;97341.72;;;10.43
76476;BMP280;65308;50.078;14.854;2024-02-23T06:51:47;97345.63;;;10.47
76476;BMP280;65308;50.078;14.854;2024-02-23T06:54:14;97352.09;;;10.29
76476;BMP280;65308;50.078;14.854;2024-02-23T06:56:41;97357.19;;;10.27
76476;BMP280;65308;50.078;14.854;2024-02-23T06:59:08;97347.00;;;10.31
76476;BMP280;65308;50.078;14.854;2024-02-23T07:01:35;97356.75;;;10.34
76476;BMP280;65308;50.078;14.854;2024-02-23T07:04:02;97360.16;;;10.41
76476;BMP280;65308;50.078;14.854;2024-02-23T07:06:30;97360.44;;;10.37
76476;BMP280;65308;50.078;14.854;2024-02-23T07:08:57;97351.06;;;10.16
76476;BMP280;65308;50.078;14.854;2024-02-23T07:11:24;97366.22;;;10.30
76476;BMP280;65308;50.078;14.854;2024-02-23T07:13:50;97371.81;;;10.38
76476;BMP280;65308;50.078;14.854;2024-02-23T07:16:17;97368.19;;;10.41
76476;BMP280;65308;50.078;14.854;2024-02-23T07:18:44;97361.84;;;10.38
76476;BMP280;65308;50.078;14.854;2024-02-23T07:21:10;97368.72;;;10.45
76476;BMP280;65308;50.078;14.854;2024-02-23T07:23:38;97376.53;;;10.54
76476;BMP280;65308;50.078;14.854;2024-02-23T07:26:05;97379.41;;;10.45
76476;BMP280;65308;50.078;14.854;2024-02-23T07:28:31;97382.13;;;10.56
76476;BMP280;65308;50.078;14.854;2024-02-23T07:30:58;97383.59;;;10.51
76476;BMP280;65308;50.078;14.854;2024-02-23T07:33:25;97383.78;;;10.53
76476;BMP280;65308;50.078;14.854;2024-02-23T07:35:51;97379.69;;;10.52
76476;BMP280;65308;50.078;14.854;2024-02-23T07:38:18;97399.56;;;10.46
76476;BMP280;65308;50.078;14.854;2024-02-23T07:40:46;97408.31;;;10.41
76476;BMP280;65308;50.078;14.854;2024-02-23T07:43:12;97404.91;;;10.46
76476;BMP280;65308;50.078;14.854;2024-02-23T07:45:40;97403.22;;;10.48
76476;BMP280;65308;50.078;14.854;2024-02-23T07:48:07;97406.94;;;10.56
76476;BMP280;65308;50.078;14.854;2024-02-23T07:50:34;97412.69;;;10.44
76476;BMP280;65308;50.078;14.854;2024-02-23T07:53:01;97419.00;;;10.41
76476;BMP280;65308;50.078;14.854;2024-02-23T07:55:29;97419.53;;;10.45
76476;BMP280;65308;50.078;14.854;2024-02-23T07:57:57;97424.94;;;10.56
76476;BMP280;65308;50.078;14.854;2024-02-23T08:00:26;97412.25;;;10.51
76476;BMP280;65308;50.078;14.854;2024-02-23T08:02:53;97419.59;;;10.56
76476;BMP280;65308;50.078;14.854;2024-02-23T08:05:22;97417.25;;;10.75
76476;BMP280;65308;50.078;14.854;2024-02-23T08:07:49;97413.84;;;10.86
76476;BMP280;65308;50.078;14.854;2024-02-23T08:10:18;97410.97;;;10.89
76476;BMP280;65308;50.078;14.854;2024-02-23T08:12:46;97416.31;;;10.95
76476;BMP280;65308;50.078;14.854;2024-02-23T08:15:14;97428.44;;;10.90
76476;BMP280;65308;50.078;14.854;2024-02-23T08:17:43;97442.25;;;10.72
76476;BMP280;65308;50.078;14.854;2024-02-23T08:20:10;97448.91;;;10.88
76476;BMP280;65308;50.078;14.854;2024-02-23T08:22:40;97451.09;;;10.89
76476;BMP280;65308;50.078;14.854;2024-02-23T08:25:07;97464.94;;;10.82
76476;BMP280;65308;50.078;14.854;2024-02-23T08:27:34;97457.84;;;10.68
76476;BMP280;65308;50.078;14.854;2024-02-23T08:30:01;97461.00;;;10.77
76476;BMP280;65308;50.078;14.854;2024-02-23T08:32:28;97474.66;;;10.85
76476;BMP280;65308;50.078;14.854;2024-02-23T08:34:55;97483.50;;;10.97
76476;BMP280;65308;50.078;14.854;2024-02-23T08:37:28;97481.31;;;11.06
76476;BMP280;65308;50.078;14.854;2024-02-23T08:39:59;97483.78;;;11.21
76476;BMP280;65308;50.078;14.854;2024-02-23T08:42:33;97487.47;;;11.41
76476;BMP280;65308;50.078;14.854;2024-02-23T08:45:00;97486.06;;;11.51
76476;BMP280;65308;50.078;14.854;2024-02-23T08:47:26;97470.25;;;11.70
76476;BMP280;65308;50.078;14.854;2024-02-23T08:50:02;97468.78;;;11.97
76476;BMP280;65308;50.078;14.854;2024-02-23T08:52:29;97472.19;;;11.92
76476;BMP280;65308;50.078;14.854;2024-02-23T08:54:56;97479.50;;;11.86
76476;BMP280;65308;50.078;14.854;2024-02-23T08:57:22;97482.94;;;11.80
76476;BMP280;65308;50.078;14.854;2024-02-23T08:59:49;97488.03;;;11.78
76476;BMP280;65308;50.078;14.854;2024-02-23T09:02:16;97498.28;;;11.74
76476;BMP280;65308;50.078;14.854;2024-02-23T09:04:44;97492.19;;;11.74
76476;BMP280;65308;50.078;14.854;2024-02-23T09:07:12;97492.66;;;11.78
76476;BMP280;65308;50.078;14.854;2024-02-23T09:09:39;97492.91;;;11.63
76476;BMP280;65308;50.078;14.854;2024-02-23T09:12:06;97484.13;;;11.46
76476;BMP280;65308;50.078;14.854;2024-02-23T09:14:35;97489.91;;;11.27
76476;BMP280;65308;50.078;14.854;2024-02-23T09:17:03;97505.28;;;11.44
76476;BMP280;65308;50.078;14.854;2024-02-23T09:19:29;97500.19;;;11.51
76476;BMP280;65308;50.078;14.854;2024-02-23T09:21:56;97507.97;;;11.55
76476;BMP280;65308;50.078;14.854;2024-02-23T09:24:26;97517.28;;;11.65
76476;BMP280;65308;50.078;14.854;2024-02-23T09:26:52;97504.59;;;11.88
76476;BMP280;65308;50.078;14.854;2024-02-23T09:29:19;97509.72;;;12.03
76476;BMP280;65308;50.078;14.854;2024-02-23T09:31:46;97508.78;;;12.00
76476;BMP280;65308;50.078;14.854;2024-02-23T09:34:13;97512.66;;;12.11
76476;BMP280;65308;50.078;14.854;2024-02-23T09:36:39;97509.97;;;11.99
76476;BMP280;65308;50.078;14.854;2024-02-23T09:39:06;97515.56;;;12.18
76476;BMP280;65308;50.078;14.854;2024-02-23T09:41:34;97522.41;;;12.08
76476;BMP280;65308;50.078;14.854;2024-02-23T09:44:02;97528.00;;;12.10
76476;BMP280;65308;50.078;14.854;2024-02-23T09:46:29;97521.19;;;12.32
76476;BMP280;65308;50.078;14.854;2024-02-23T09:48:56;97524.56;;;12.38
76476;BMP280;65308;50.078;14.854;2024-02-23T09:51:23;97525.78;;;12.48
76476;BMP280;65308;50.078;14.854;2024-02-23T09:53:50;97530.81;;;12.80
76476;BMP280;65308;50.078;14.854;2024-02-23T09:56:17;97533.19;;;13.00
76476;BMP280;65308;50.078;14.854;2024-02-23T09:58:46;97531.69;;;13.10
76476;BMP280;65308;50.078;14.854;2024-02-23T10:01:20;97521.56;;;13.33
76476;BMP280;65308;50.078;14.854;2024-02-23T10:03:48;97514.13;;;13.50
76476;BMP280;65308;50.078;14.854;2024-02-23T10:06:15;97504.84;;;13.52
76476;BMP280;65308;50.078;14.854;2024-02-23T10:08:42;97509.53;;;13.45
76476;BMP280;65308;50.078;14.854;2024-02-23T10:11:09;97517.81;;;13.47
76476;BMP280;65308;50.078;14.854;2024-02-23T10:13:41;97514.06;;;13.56
76476;BMP280;65308;50.078;14.854;2024-02-23T10:16:12;97516.34;;;13.52
76476;BMP280;65308;50.078;14.854;2024-02-23T10:18:38;97511.56;;;13.34
76476;BMP280;65308;50.078;14.854;2024-02-23T10:21:05;97503.78;;;13.24
76476;BMP280;65308;50.078;14.854;2024-02-23T10:23:32;97505.16;;;13.37
76476;BMP280;65308;50.078;14.854;2024-02-23T10:26:03;97507.00;;;13.53
76476;BMP280;65308;50.078;14.854;2024-02-23T10:28:31;97510.91;;;13.58
76476;BMP280;65308;50.078;14.854;2024-02-23T10:30:59;97511.84;;;13.60
76476;BMP280;65308;50.078;14.854;2024-02-23T10:33:30;97518.59;;;13.72
76476;BMP280;65308;50.078;14.854;2024-02-23T10:35:57;97530.84;;;13.68
76476;BMP280;65308;50.078;14.854;2024-02-23T10:38:26;97531.06;;;14.06
76476;BMP280;65308;50.078;14.854;2024-02-23T10:40:55;97520.03;;;14.09
76476;BMP280;65308;50.078;14.854;2024-02-23T10:43:27;97527.59;;;14.35
76476;BMP280;65308;50.078;14.854;2024-02-23T10:45:57;97525.31;;;15.07
76476;BMP280;65308;50.078;14.854;2024-02-23T10:48:25;97548.28;;;15.65
76476;BMP280;65308;50.078;14.854;2024-02-23T10:50:55;97564.16;;;16.00
76476;BMP280;65308;50.078;14.854;2024-02-23T10:53:23;97568.19;;;15.94
76476;BMP280;65308;50.078;14.854;2024-02-23T10:55:50;97569.72;;;15.89
76476;BMP280;65308;50.078;14.854;2024-02-23T10:58:18;97565.53;;;16.34
76476;BMP280;65308;50.078;14.854;2024-02-23T11:00:45;97563.78;;;16.49
76476;BMP280;65308;50.078;14.854;2024-02-23T11:03:12;97568.00;;;16.32
76476;BMP280;65308;50.078;14.854;2024-02-23T11:05:39;97566.50;;;15.91
76476;BMP280;65308;50.078;14.854;2024-02-23T11:08:08;97558.50;;;15.85
76476;BMP280;65308;50.078;14.854;2024-02-23T11:10:41;97568.66;;;15.79
76476;BMP280;65308;50.078;14.854;2024-02-23T11:13:08;97568.13;;;15.48
76476;BMP280;65308;50.078;14.854;2024-02-23T11:15:34;97568.75;;;15.22
76476;BMP280;65308;50.078;14.854;2024-02-23T11:18:23;97570.53;;;15.14
76476;BMP280;65308;50.078;14.854;2024-02-23T11:20:54;97578.53;;;15.01
76476;BMP280;65308;50.078;14.854;2024-02-23T11:23:24;97591.50;;;15.03
76476;BMP280;65308;50.078;14.854;2024-02-23T11:26:04;97594.16;;;14.84
76476;BMP280;65308;50.078;14.854;2024-02-23T11:28:32;97603.66;;;14.66
76476;BMP280;65308;50.078;14.854;2024-02-23T11:30:58;97600.53;;;14.62
76476;BMP280;65308;50.078;14.854;2024-02-23T11:33:27;97590.56;;;14.27
76476;BMP280;65308;50.078;14.854;2024-02-23T11:36:04;97593.94;;;14.03
76476;BMP280;65308;50.078;14.854;2024-02-23T11:38:33;97587.56;;;14.06
76476;BMP280;65308;50.078;14.854;2024-02-23T11:41:00;97581.22;;;14.03
76476;BMP280;65308;50.078;14.854;2024-02-23T11:43:26;97579.66;;;14.13
76476;BMP280;65308;50.078;14.854;2024-02-23T11:45:53;97581.06;;;14.20
76476;BMP280;65308;50.078;14.854;2024-02-23T11:48:20;97583.38;;;14.35
76476;BMP280;65308;50.078;14.854;2024-02-23T11:50:48;97573.41;;;14.30
76476;BMP280;65308;50.078;14.854;2024-02-23T11:53:15;97578.88;;;14.18
76476;BMP280;65308;50.078;14.854;2024-02-23T11:55:45;97572.56;;;14.16
76476;BMP280;65308;50.078;14.854;2024-02-23T11:58:13;97585.06;;;14.13
76476;BMP280;65308;50.078;14.854;2024-02-23T12:00:39;97578.88;;;14.18
76476;BMP280;65308;50.078;14.854;2024-02-23T12:03:06;97583.31;;;14.16
76476;BMP280;65308;50.078;14.854;2024-02-23T12:05:33;97581.44;;;14.05
76476;BMP280;65308;50.078;14.854;2024-02-23T12:08:00;97584.66;;;14.04
76476;BMP280;65308;50.078;14.854;2024-02-23T12:10:27;97569.44;;;14.06
76476;BMP280;65308;50.078;14.854;2024-02-23T12:12:55;97584.19;;;13.99
76476;BMP280;65308;50.078;14.854;2024-02-23T12:15:22;97574.44;;;13.91
76476;BMP280;65308;50.078;14.854;2024-02-23T12:17:49;97583.72;;;13.95
76476;BMP280;65308;50.078;14.854;2024-02-23T12:20:16;97581.53;;;13.94
76476;BMP280;65308;50.078;14.854;2024-02-23T12:22:42;97576.88;;;13.94
76476;BMP280;65308;50.078;14.854;2024-02-23T12:25:09;97575.69;;;13.90
76476;BMP280;65308;50.078;14.854;2024-02-23T12:27:38;97572.78;;;13.88
76476;BMP280;65308;50.078;14.854;2024-02-23T12:30:13;97574.22;;;13.89
76476;BMP280;65308;50.078;14.854;2024-02-23T12:32:41;97568.13;;;13.88
76476;BMP280;65308;50.078;14.854;2024-02-23T12:35:10;97568.16;;;13.83
76476;BMP280;65308;50.078;14.854;2024-02-23T12:37:36;97572.84;;;13.77
76476;BMP280;65308;50.078;14.854;2024-02-23T12:40:04;97569.50;;;13.70
76476;BMP280;65308;50.078;14.854;2024-02-23T12:42:31;97566.56;;;13.63
76476;BMP280;65308;50.078;14.854;2024-02-23T12:44:58;97575.41;;;13.58
76476;BMP280;65308;50.078;14.854;2024-02-23T12:47:26;97575.16;;;13.61
76476;BMP280;65308;50.078;14.854;2024-02-23T12:49:53;97577.13;;;13.55
76476;BMP280;65308;50.078;14.854;2024-02-23T12:52:20;97578.59;;;13.56
76476;BMP280;65308;50.078;14.854;2024-02-23T12:54:46;97579.34;;;13.57
76476;BMP280;65308;50.078;14.854;2024-02-23T12:57:13;97587.84;;;13.61
76476;BMP280;65308;50.078;14.854;2024-02-23T12:59:41;97585.38;;;13.63
76476;BMP280;65308;50.078;14.854;2024-02-23T13:02:09;97593.50;;;13.57
76476;BMP280;65308;50.078;14.854;2024-02-23T13:04:42;97591.03;;;13.59
76476;BMP280;65308;50.078;14.854;2024-02-23T13:07:13;97589.91;;;13.43
76476;BMP280;65308;50.078;14.854;2024-02-23T13:09:40;97588.69;;;13.39
76476;BMP280;65308;50.078;14.854;2024-02-23T13:12:07;97585.53;;;13.40
76476;BMP280;65308;50.078;14.854;2024-02-23T13:14:33;97584.56;;;13.38
76476;BMP280;65308;50.078;14.854;2024-02-23T13:17:00;97578.19;;;13.41
76476;BMP280;65308;50.078;14.854;2024-02-23T13:19:27;97576.69;;;13.45
76476;BMP280;65308;50.078;14.854;2024-02-23T13:21:55;97567.09;;;13.56
76476;BMP280;65308;50.078;14.854;2024-02-23T13:24:22;97573.66;;;13.60
76476;BMP280;65308;50.078;14.854;2024-02-23T13:26:48;97572.91;;;13.65
76476;BMP280;65308;50.078;14.854;2024-02-23T13:29:15;97567.00;;;13.72
76476;BMP280;65308;50.078;14.854;2024-02-23T13:31:42;97566.69;;;13.82
76476;BMP280;65308;50.078;14.854;2024-02-23T13:34:08;97561.53;;;13.84
76476;BMP280;65308;50.078;14.854;2024-02-23T13:36:36;97554.69;;;13.88
76476;BMP280;65308;50.078;14.854;2024-02-23T13:39:04;97562.13;;;14.01
76476;BMP280;65308;50.078;14.854;2024-02-23T13:41:31;97559.31;;;14.18
76476;BMP280;65308;50.078;14.854;2024-02-23T13:43:57;97557.69;;;14.39
76476;BMP280;65308;50.078;14.854;2024-02-23T13:46:24;97555.06;;;14.53
76476;BMP280;65308;50.078;14.854;2024-02-23T13:49:03;97546.81;;;14.69
76476;BMP280;65308;50.078;14.854;2024-02-23T13:51:31;97559.31;;;14.91
76476;BMP280;65308;50.078;14.854;2024-02-23T13:53:58;97559.84;;;14.90
76476;BMP280;65308;50.078;14.854;2024-02-23T13:56:26;97547.13;;;14.85
76476;BMP280;65308;50.078;14.854;2024-02-23T13:58:53;97546.25;;;14.77
76476;BMP280;65308;50.078;14.854;2024-02-23T14:01:20;97547.78;;;14.72
76476;BMP280;65308;50.078;14.854;2024-02-23T14:03:46;97542.38;;;14.72